Time;durP1;ratioP1;P1;durP2;ratioP2;P2;SDS_P1;SDS_P2;PMS_P1;PMS_P2;Temp;Humidity;BMP_temperature;BMP_pressure;BME280_temperature;BME280_humidity;BME280_pressure;Samples;Min_cycle;Max_cycle;Signal;HPM_P1;HPM_P2
2022/02/04 00:07:21;;;;;;;15.52;10.02;;;;;;;7.57;100.00;101227.97;5096753;28;20041;-71
2022/02/04 00:20:47;;;;;;;15.68;9.20;;;;;;;7.55;100.00;101212.16;5094257;28;20528;-70
2022/02/04 00:23:17;;;;;;;14.60;8.73;;;;;;;7.54;100.00;101201.66;5102241;28;20058;-70
2022/02/04 00:33:39;;;;;;;18.30;8.50;;;;;;;7.53;100.00;101192.91;5095573;28;20073;-71
2022/02/04 00:36:13;;;;;;;15.73;8.45;;;;;;;7.55;100.00;101198.19;5096888;28;20027;-70
2022/02/04 00:38:42;;;;;;;;;;;;;;;7.56;100.00;101198.25;5104742;28;20624;-71
2022/02/04 00:41:10;;;;;;;17.85;8.45;;;;;;;7.53;100.00;101197.28;5099013;28;19915;-70
2022/02/04 00:43:37;;;;;;;18.42;8.20;;;;;;;7.54;100.00;101197.31;5095591;28;20028;-70
2022/02/04 00:48:47;;;;;;;15.25;8.70;;;;;;;7.52;100.00;101192.88;5097547;28;20050;-70
2022/02/04 00:51:30;;;;;;;14.35;8.07;;;;;;;7.55;100.00;101187.72;5106141;28;20499;-69
2022/02/04 00:54:11;;;;;;;14.23;8.35;;;;;;;7.54;100.00;101185.94;5105386;28;20465;-69
2022/02/04 01:26:17;;;;;;;10.43;4.30;;;;;;;7.62;100.00;101158.28;5094991;28;20421;-70
2022/02/04 01:28:45;;;;;;;10.15;4.80;;;;;;;7.60;100.00;101154.72;5094551;28;20024;-69
2022/02/04 01:31:13;;;;;;;15.60;5.57;;;;;;;7.63;100.00;101152.19;5094190;28;20102;-69
2022/02/04 01:33:38;;;;;;;10.02;5.60;;;;;;;7.64;100.00;101155.69;5074229;28;20416;-70
2022/02/04 01:36:04;;;;;;;11.50;5.28;;;;;;;7.67;100.00;101154.09;5100019;28;20131;-70
2022/02/04 01:38:30;;;;;;;11.50;4.63;;;;;;;7.64;100.00;101148.75;5099995;28;20456;-70
2022/02/04 01:40:58;;;;;;;19.50;5.45;;;;;;;7.62;100.00;101150.41;5100228;28;20025;-70
2022/02/04 01:43:23;;;;;;;12.68;4.72;;;;;;;7.65;100.00;101147.94;5091851;28;20507;-70
2022/02/04 01:45:53;;;;;;;13.55;4.97;;;;;;;7.70;100.00;101151.56;5084928;28;20054;-70
2022/02/04 01:48:19;;;;;;;14.02;5.13;;;;;;;7.68;100.00;101142.78;5075280;28;20040;-70
2022/02/04 01:50:46;;;;;;;14.35;5.07;;;;;;;7.70;100.00;101146.31;5100042;28;20093;-69
2022/02/04 01:53:13;;;;;;;11.05;4.65;;;;;;;7.70;100.00;101140.22;5096417;28;20020;-70
2022/02/04 01:55:43;;;;;;;11.60;4.70;;;;;;;7.72;100.00;101142.03;5081027;28;20436;-70
2022/02/04 01:58:09;;;;;;;9.73;4.18;;;;;;;7.74;100.00;101137.72;5094821;28;20044;-70
2022/02/04 02:00:36;;;;;;;17.10;4.85;;;;;;;7.70;100.00;101130.59;5095133;28;20031;-70
2022/02/04 02:03:01;;;;;;;18.92;4.93;;;;;;;7.71;100.00;101137.63;5098229;28;20085;-71
2022/02/04 02:05:26;;;;;;;12.63;4.30;;;;;;;7.70;100.00;101134.97;5095824;28;20076;-70
2022/02/04 02:07:52;;;;;;;14.43;5.00;;;;;;;7.73;100.00;101130.72;5092153;28;20395;-70
2022/02/04 02:10:18;;;;;;;19.48;5.32;;;;;;;7.70;100.00;101129.72;5074402;28;20052;-70
2022/02/04 02:37:49;;;;;;;14.38;4.45;;;;;;;7.63;100.00;101107.69;5108070;28;20039;-70
2022/02/04 02:52:52;;;;;;;9.45;4.05;;;;;;;7.69;100.00;101086.94;5097335;28;20105;-71
2022/02/04 03:03:08;;;;;;;17.08;4.72;;;;;;;7.70;100.00;101079.97;5102744;28;20046;-70
2022/02/04 03:05:33;;;;;;;13.05;3.20;;;;;;;7.72;100.00;101071.31;5078252;28;20192;-69
2022/02/04 03:07:59;;;;;;;6.63;3.58;;;;;;;7.74;100.00;101080.09;5103936;28;20507;-70
2022/02/04 03:10:24;;;;;;;10.90;2.80;;;;;;;7.74;100.00;101067.00;5103078;28;20499;-70
2022/02/04 03:12:50;;;;;;;12.32;3.63;;;;;;;7.71;100.00;101069.53;5094939;28;20479;-69
2022/02/04 03:15:15;;;;;;;10.18;3.33;;;;;;;7.73;100.00;101066.94;5098038;28;20020;-70
2022/02/04 03:17:42;;;;;;;9.80;3.00;;;;;;;7.79;100.00;101066.28;5087318;28;20069;-69
2022/02/04 03:20:11;;;;;;;11.15;3.38;;;;;;;7.78;100.00;101056.63;5100951;28;20039;-71
2022/02/04 03:22:36;;;;;;;6.88;2.90;;;;;;;7.80;100.00;101053.22;5095071;28;20032;-70
2022/02/04 03:25:06;;;;;;;6.80;2.63;;;;;;;7.80;100.00;101060.19;5097269;28;20080;-70
2022/02/04 03:27:41;;;;;;;10.80;2.78;;;;;;;7.78;100.00;101048.78;5095072;28;20020;-69
2022/02/04 03:30:17;;;;;;;15.73;2.95;;;;;;;7.76;100.00;101041.75;5079137;28;20110;-70
2022/02/04 03:32:48;;;;;;;13.73;2.85;;;;;;;7.77;100.00;101045.25;5085339;28;20027;-70
2022/02/04 03:35:19;;;;;;;8.23;2.53;;;;;;;7.78;100.00;101043.53;5090583;28;20035;-70
2022/02/04 03:37:44;;;;;;;8.02;2.10;;;;;;;7.80;100.00;101041.84;5094232;28;20039;-70
2022/02/04 03:40:10;;;;;;;7.35;2.28;;;;;;;7.85;100.00;101050.75;5096467;28;20025;-70
2022/02/04 03:42:36;;;;;;;12.93;2.30;;;;;;;7.86;100.00;101050.78;5096415;28;20032;-70
2022/02/04 03:45:01;;;;;;;9.82;2.40;;;;;;;7.86;100.00;101052.53;5096968;28;20383;-70
2022/02/04 03:47:26;;;;;;;14.85;3.40;;;;;;;7.84;100.00;101043.72;5102745;28;20051;-70
2022/02/04 03:49:52;;;;;;;7.95;2.17;;;;;;;7.86;100.00;101042.03;5081903;28;20556;-71
2022/02/04 03:52:17;;;;;;;11.00;2.15;;;;;;;7.84;100.00;101044.63;5095268;28;20103;-70
2022/02/04 03:54:42;;;;;;;11.70;2.15;;;;;;;7.87;100.00;101038.59;5099489;28;20039;-70
2022/02/04 03:57:07;;;;;;;17.13;2.15;;;;;;;7.89;100.00;101031.66;5096490;28;20475;-70
2022/02/04 03:59:33;;;;;;;18.35;2.20;;;;;;;7.91;100.00;101043.97;5099983;28;20035;-70
2022/02/04 04:01:58;;;;;;;20.35;3.05;;;;;;;7.92;100.00;101022.16;5099928;28;20073;-70
2022/02/04 04:04:29;;;;;;;14.88;1.95;;;;;;;7.94;100.00;101025.69;5104147;28;20032;-70
2022/02/04 04:06:55;;;;;;;13.93;1.92;;;;;;;7.92;100.00;101023.88;5078474;28;20475;-69
2022/02/04 04:09:20;;;;;;;12.20;2.40;;;;;;;7.97;100.00;101019.66;5104348;28;20031;-70
2022/02/04 04:11:47;;;;;;;13.70;2.53;;;;;;;7.96;100.00;101025.75;5081445;28;20039;-70
2022/02/04 04:14:14;;;;;;;16.25;2.35;;;;;;;7.96;100.00;101024.88;5094099;28;20028;-70
2022/02/04 04:16:41;;;;;;;12.93;2.42;;;;;;;7.96;100.00;101017.88;5105885;28;20091;-69
2022/02/04 04:19:07;;;;;;;13.02;2.33;;;;;;;7.97;100.00;101026.66;5094611;28;20376;-70
2022/02/04 04:21:32;;;;;;;10.20;2.50;;;;;;;7.97;100.00;101030.16;5103374;28;20062;-70
2022/02/04 04:23:58;;;;;;;14.88;3.00;;;;;;;8.02;100.00;101031.19;5097351;28;20096;-70
2022/02/04 04:26:23;;;;;;;7.45;2.13;;;;;;;7.97;100.00;101029.28;5086512;28;20031;-70
2022/02/04 04:28:49;;;;;;;11.75;2.45;;;;;;;7.97;100.00;101017.03;5094202;28;20035;-70
2022/02/04 04:31:15;;;;;;;9.43;1.55;;;;;;;7.97;100.00;101017.03;5093888;28;20111;-70
2022/02/04 04:33:41;;;;;;;10.27;2.03;;;;;;;7.97;100.00;101024.03;5093556;28;20028;-70
2022/02/04 04:36:06;;;;;;;11.65;3.63;;;;;;;7.96;100.00;101017.88;5098127;28;20106;-69
2022/02/04 04:38:41;;;;;;;11.52;2.55;;;;;;;7.95;100.00;101010.88;5103894;28;20399;-69
2022/02/04 05:29:51;;;;;;;4.60;1.75;;;;;;;7.95;100.00;100966.34;5093105;28;20483;-70
2022/02/04 05:32:17;;;;;;;11.02;2.00;;;;;;;7.94;100.00;100959.31;5098835;28;20032;-70
2022/02/04 05:34:45;;;;;;;6.07;1.73;;;;;;;7.95;100.00;100961.09;5092973;28;20063;-70
2022/02/04 05:37:13;;;;;;;5.30;1.60;;;;;;;7.94;100.00;100961.94;5099867;28;20015;-69
2022/02/04 05:39:55;;;;;;;8.30;2.30;;;;;;;7.94;100.00;100968.06;5092424;28;20133;-69
2022/02/04 05:42:25;;;;;;;8.50;2.30;;;;;;;7.97;100.00;100940.19;5097101;28;20551;-70
2022/02/04 05:44:59;;;;;;;9.60;2.65;;;;;;;7.93;100.00;100929.63;5098361;28;20375;-70
2022/02/04 05:47:25;;;;;;;8.63;2.38;;;;;;;7.96;100.00;100934.03;5096361;28;20100;-70
2022/02/04 05:50:11;;;;;;;6.72;2.33;;;;;;;7.95;100.00;100927.03;5078464;28;20475;-70
2022/02/04 05:52:54;;;;;;;9.27;2.42;;;;;;;7.97;100.00;100929.69;5094288;28;20100;-70
2022/02/04 05:57:58;;;;;;;7.32;2.38;;;;;;;7.93;100.00;100928.72;5099065;28;19919;-69
2022/02/04 06:00:37;;;;;;;6.20;2.50;;;;;;;7.90;100.00;100926.00;5100192;28;20028;-69
2022/02/04 06:13:32;;;;;;;7.50;2.40;;;;;;;7.84;100.00;100936.31;5097472;28;20113;-69
2022/02/04 06:24:04;;;;;;;5.28;3.63;;;;;;;7.83;100.00;100927.56;5097996;28;20031;-79
2022/02/04 06:26:30;;;;;;;7.32;3.78;;;;;;;7.82;100.00;100935.38;5108803;28;20483;-71
2022/02/04 06:28:56;;;;;;;10.25;4.43;;;;;;;7.80;100.00;100929.19;5110933;28;20042;-72
2022/02/04 06:31:23;;;;;;;6.80;4.63;;;;;;;7.79;100.00;100935.31;5101357;28;20027;-71
2022/02/04 06:33:49;;;;;;;9.73;5.53;;;;;;;7.82;100.00;100935.38;5102163;28;20051;-70
2022/02/04 06:36:14;;;;;;;8.07;5.45;;;;;;;7.80;100.00;100934.44;5098959;28;20035;-70
2022/02/04 06:38:40;;;;;;;10.80;6.85;;;;;;;7.73;100.00;100915.94;5103425;28;20026;-71
2022/02/04 06:41:05;;;;;;;10.93;7.63;;;;;;;7.78;100.00;100923.91;5100855;28;20028;-71
2022/02/04 06:43:31;;;;;;;10.27;6.38;;;;;;;7.79;100.00;100925.69;5111385;28;20475;-73
2022/02/04 06:45:57;;;;;;;12.98;7.13;;;;;;;7.81;100.00;100915.25;5102052;28;20031;-71
2022/02/04 06:48:23;;;;;;;10.10;7.00;;;;;;;7.79;100.00;100904.75;5096568;28;20031;-70
2022/02/04 06:50:48;;;;;;;8.57;6.72;;;;;;;7.76;100.00;100899.44;5086922;28;20477;-71
2022/02/04 06:53:14;;;;;;;11.15;6.55;;;;;;;7.77;100.00;100909.03;5067849;28;20035;-71
2022/02/04 06:55:40;;;;;;;11.73;7.32;;;;;;;7.80;100.00;100900.38;5083268;28;20033;-72
2022/02/04 06:58:06;;;;;;;9.73;7.00;;;;;;;7.79;100.00;100888.16;5060896;28;20369;-72
2022/02/04 07:00:32;;;;;;;12.10;7.40;;;;;;;7.76;100.00;100894.19;5082059;28;20028;-73
2022/02/04 07:02:57;;;;;;;11.93;6.30;;;;;;;7.79;100.00;100896.00;5062942;28;20035;-72
2022/02/04 07:05:24;;;;;;;10.02;6.03;;;;;;;7.78;100.00;100892.47;5077992;28;20040;-70
2022/02/04 07:08:08;;;;;;;8.90;6.97;;;;;;;7.81;100.00;100902.16;5080759;28;20016;-71
2022/02/04 07:13:20;;;;;;;9.15;6.47;;;;;;;7.82;100.00;100902.22;5078515;28;20043;-71
2022/02/04 07:15:56;;;;;;;10.25;6.70;;;;;;;7.82;100.00;100903.94;5079431;28;20520;-72
2022/02/04 07:21:08;;;;;;;11.20;7.97;;;;;;;7.90;100.00;100887.59;5080351;28;20071;-72
2022/02/04 07:23:35;;;;;;;11.05;7.55;;;;;;;7.95;100.00;100906.06;5065239;28;20120;-70
2022/02/04 07:26:01;;;;;;;11.13;8.10;;;;;;;7.88;100.00;100899.78;5064048;28;20030;-69
2022/02/04 07:28:27;;;;;;;11.52;9.02;;;;;;;7.89;100.00;100898.03;5086824;28;20123;-70
2022/02/04 07:30:53;;;;;;;14.40;8.85;;;;;;;7.89;100.00;100898.03;5061688;28;20020;-70
2022/02/04 07:33:22;;;;;;;12.02;8.82;;;;;;;7.92;100.00;100908.59;5082735;28;20047;-70
2022/02/04 07:41:01;;;;;;;12.15;8.70;;;;;;;7.97;100.00;100893.00;5088770;28;20029;-69
2022/02/04 07:43:27;;;;;;;13.75;9.25;;;;;;;7.99;100.00;100892.22;5083770;28;20036;-70
2022/02/04 07:45:53;;;;;;;11.93;8.18;;;;;;;8.06;100.00;100867.06;5070360;28;20020;-71
2022/02/04 07:48:18;;;;;;;14.90;8.80;;;;;;;8.06;100.00;100867.94;5070961;28;20394;-70
2022/02/04 07:50:45;;;;;;;13.32;8.07;;;;;;;8.07;100.00;100872.34;5098433;27;20035;-70
2022/02/04 07:53:10;;;;;;;14.25;7.28;;;;;;;8.12;100.00;100874.22;5106204;27;20301;-71
2022/02/04 07:55:35;;;;;;;12.15;7.75;;;;;;;8.06;100.00;100873.19;5084666;28;20032;-70
2022/02/04 07:58:01;;;;;;;15.45;8.02;;;;;;;8.15;100.00;100874.28;5094198;27;20069;-70
2022/02/04 08:00:27;;;;;;;8.77;7.30;;;;;;;8.12;100.00;100871.59;5100398;28;20031;-71
2022/02/04 08:02:53;;;;;;;12.00;8.00;;;;;;;8.08;100.00;100860.13;5101698;27;20142;-71
2022/02/04 08:05:22;;;;;;;11.13;7.72;;;;;;;8.09;100.00;100868.03;5102246;28;20501;-71
2022/02/04 08:07:57;;;;;;;13.25;7.80;;;;;;;8.08;100.00;100863.66;5096248;28;20046;-70
2022/02/04 08:10:49;;;;;;;10.05;7.70;;;;;;;8.09;100.00;100861.91;5081115;28;20161;-70
2022/02/04 08:13:31;;;;;;;13.70;7.40;;;;;;;8.14;100.00;100859.38;5108299;27;20040;-70
2022/02/04 08:21:24;;;;;;;9.98;6.82;;;;;;;8.16;100.00;100836.75;5103804;27;20116;-69
2022/02/04 08:24:10;;;;;;;11.00;6.78;;;;;;;8.16;100.00;100842.00;5083559;27;20470;-71
2022/02/04 08:29:14;;;;;;;7.20;4.95;;;;;;;8.16;100.00;100826.25;5104745;27;20437;-71
2022/02/04 08:39:40;;;;;;;7.63;5.32;;;;;;;8.17;100.00;100809.69;5097531;27;20040;-71
2022/02/04 08:46:48;;;;;;;8.90;4.90;;;;;;;8.24;100.00;100815.13;5103363;27;20038;-71
2022/02/04 08:55:36;;;;;;;6.55;4.55;;;;;;;8.28;100.00;100813.47;5111565;27;20036;-70
2022/02/04 08:58:22;;;;;;;8.60;4.47;;;;;;;8.28;100.00;100795.13;5094516;28;20027;-71
2022/02/04 09:00:59;;;;;;;8.15;4.95;;;;;;;8.27;100.00;100806.44;5098830;27;20035;-70
2022/02/04 09:03:36;;;;;;;8.18;5.15;;;;;;;8.36;100.00;100793.56;5102621;28;20510;-71
2022/02/04 09:06:10;;;;;;;12.18;5.82;;;;;;;8.30;100.00;100788.16;5102296;27;20026;-70
2022/02/04 09:08:40;;;;;;;6.35;5.10;;;;;;;8.36;100.00;100767.34;5084571;28;20020;-71
2022/02/04 09:11:07;;;;;;;9.07;5.40;;;;;;;8.40;100.00;100769.19;5093833;28;20100;-71
2022/02/04 09:19:21;;;;;;;;;;;;;;;8.41;100.00;100763.09;5094574;28;20047;-70
2022/02/04 09:24:24;;;;;;;7.13;4.85;;;;;;;8.44;100.00;100754.44;5099361;28;20034;-70
2022/02/04 09:26:51;;;;;;;8.73;5.50;;;;;;;8.47;100.00;100753.66;5101194;28;20103;-70
2022/02/04 09:29:17;;;;;;;7.45;5.15;;;;;;;8.59;100.00;100753.94;5100945;28;20048;-71
2022/02/04 09:31:42;;;;;;;7.45;4.93;;;;;;;8.82;100.00;100750.94;5099480;28;20016;-71
2022/02/04 09:34:09;;;;;;;8.55;4.07;;;;;;;9.01;100.00;100747.88;5100306;28;20103;-70
2022/02/04 09:36:35;;;;;;;6.18;3.90;;;;;;;8.98;100.00;100741.66;5101446;28;20027;-70
2022/02/04 09:39:01;;;;;;;7.88;3.55;;;;;;;8.94;100.00;100735.47;5096578;28;20462;-69
2022/02/04 09:41:27;;;;;;;5.57;3.33;;;;;;;8.93;100.00;100731.06;5093322;28;20028;-70
2022/02/04 09:43:53;;;;;;;4.00;3.60;;;;;;;8.95;100.00;100726.72;5081382;28;20028;-70
2022/02/04 09:46:19;;;;;;;5.45;3.63;;;;;;;9.05;100.00;100741.84;5115784;28;20524;-70
2022/02/04 09:48:49;;;;;;;8.07;3.75;;;;;;;9.20;100.00;100722.88;5103149;28;20099;-70
2022/02/04 09:51:19;;;;;;;4.20;3.53;;;;;;;9.08;100.00;100734.00;5082119;28;20051;-71
2022/02/04 10:05:07;;;;;;;7.05;5.10;;;;;;;8.55;100.00;100715.38;5076478;28;19919;-71
2022/02/04 10:18:09;;;;;;;5.87;5.00;;;;;;;8.51;100.00;100710.91;5081378;28;20111;-70
2022/02/04 10:20:38;;;;;;;8.15;4.93;;;;;;;8.54;100.00;100697.88;5077743;28;20392;-70
2022/02/04 10:23:04;;;;;;;5.35;4.28;;;;;;;8.60;100.00;100692.78;5079042;28;20023;-70
2022/02/04 10:25:47;;;;;;;6.55;4.63;;;;;;;8.60;100.00;100693.66;5082809;28;20036;-70
2022/02/04 10:28:26;;;;;;;4.38;3.72;;;;;;;8.66;100.00;100703.38;5075552;28;20387;-70
2022/02/04 10:31:14;;;;;;;7.68;3.80;;;;;;;8.68;100.00;100691.19;5073459;28;20029;-70
2022/02/04 10:33:52;;;;;;;6.88;4.03;;;;;;;8.77;100.00;100686.13;5064853;28;20028;-70
2022/02/04 10:36:58;;;;;;;4.60;3.63;;;;;;;8.76;100.00;100678.22;5058496;28;20089;-70
2022/02/04 10:43:24;;;;;;;6.60;3.58;;;;;;;8.81;100.00;100673.09;5079584;28;20143;-70
2022/02/04 10:59:09;;;;;;;6.05;2.95;;;;;;;8.75;100.00;100648.50;5103826;28;20028;-70
2022/02/04 11:07:24;;;;;;;5.18;2.50;;;;;;;8.78;100.00;100630.19;5095185;28;20133;-69
2022/02/04 11:31:48;;;;;;;5.00;2.85;;;;;;;8.51;100.00;100585.03;5101612;27;20077;-70
2022/02/04 11:34:38;;;;;;;5.15;3.17;;;;;;;8.56;100.00;100586.00;5105133;27;20031;-69
2022/02/04 11:48:54;;;;;;;3.85;3.25;;;;;;;8.19;100.00;100570.38;5095999;27;20046;-70
2022/02/04 11:56:56;;;;;;;3.47;3.03;;;;;;;8.35;100.00;100547.09;5101354;27;20024;-70
2022/02/04 11:59:48;;;;;;;4.95;3.17;;;;;;;8.24;100.00;100533.75;5103116;27;20035;-71
2022/02/04 12:02:26;;;;;;;9.60;4.28;;;;;;;8.12;100.00;100541.38;5088739;27;20040;-70
2022/02/04 12:05:03;;;;;;;4.75;4.07;;;;;;;8.02;100.00;100530.69;5099841;28;20375;-70
2022/02/04 12:07:36;;;;;;;13.25;4.15;;;;;;;7.86;100.00;100529.44;5103084;27;20111;-70
2022/02/04 12:10:23;;;;;;;5.40;4.27;;;;;;;7.74;100.00;100534.41;5100938;28;20016;-70
2022/02/04 12:12:55;;;;;;;8.30;5.07;;;;;;;7.60;100.00;100534.09;5103931;27;20281;-68
2022/02/04 12:15:36;;;;;;;8.05;4.63;;;;;;;7.48;100.00;100536.44;5103558;27;20047;-70
2022/02/04 12:18:05;;;;;;;7.35;4.30;;;;;;;7.38;100.00;100520.50;5105796;28;20024;-70
2022/02/04 12:20:46;;;;;;;9.27;4.78;;;;;;;7.33;100.00;100522.09;5086208;28;20024;-69
2022/02/04 12:23:31;;;;;;;9.55;5.20;;;;;;;7.24;100.00;100525.41;5083161;28;20036;-69
2022/02/04 12:26:08;;;;;;;7.05;4.80;;;;;;;7.15;100.00;100517.31;5101037;27;20046;-70
2022/02/04 12:28:51;;;;;;;8.98;4.78;;;;;;;7.15;100.00;100500.69;5082170;28;20028;-72
2022/02/04 12:31:24;;;;;;;19.10;5.18;;;;;;;7.11;100.00;100501.47;5087530;28;20067;-71
2022/02/04 12:33:54;;;;;;;11.80;4.37;;;;;;;7.09;100.00;100476.19;5108199;27;20123;-72
2022/02/04 12:36:21;;;;;;;8.15;4.20;;;;;;;7.08;100.00;100473.50;5093228;27;20042;-72
2022/02/04 12:38:49;;;;;;;10.93;4.97;;;;;;;7.06;100.00;100494.41;5099008;27;20039;-72
2022/02/04 12:41:29;;;;;;;9.35;4.40;;;;;;;7.05;100.00;100468.19;5095926;27;20035;-72
2022/02/04 12:44:00;;;;;;;6.88;4.68;;;;;;;7.02;100.00;100468.13;5104446;27;20035;-73
2022/02/04 12:46:28;;;;;;;6.57;4.50;;;;;;;7.01;100.00;100459.41;5105727;27;20054;-73
2022/02/04 12:49:03;;;;;;;7.43;4.53;;;;;;;6.98;100.00;100456.69;5100518;27;20470;-72
2022/02/04 12:54:38;;;;;;;8.70;5.32;;;;;;;6.97;100.00;100454.91;5106564;27;20035;-73
2022/02/04 13:07:51;;;;;;;11.27;0.90;;;;;;;5.22;100.00;100558.66;5097334;27;20038;-72
2022/02/04 13:10:23;;;;;;;8.50;0.82;;;;;;;4.89;100.00;100577.53;5099758;27;20054;-72
2022/02/04 13:13:05;;;;;;;9.43;0.93;;;;;;;4.73;100.00;100590.03;5099274;28;20077;-72
2022/02/04 13:15:35;;;;;;;14.10;1.35;;;;;;;4.67;100.00;100588.91;5103978;28;20131;-72
2022/02/04 13:18:07;;;;;;;7.63;1.00;;;;;;;4.65;100.00;100599.28;5093680;27;20022;-72
2022/02/04 13:20:34;;;;;;;2.15;0.40;;;;;;;4.56;100.00;100601.56;5099508;27;20024;-72
2022/02/04 13:23:05;;;;;;;4.05;0.45;;;;;;;4.53;100.00;100609.22;5100451;27;20031;-72
2022/02/04 13:25:32;;;;;;;3.15;0.45;;;;;;;4.39;100.00;100609.63;5100058;28;20043;-73
2022/02/04 13:28:04;;;;;;;2.00;0.30;;;;;;;4.24;100.00;100611.63;5110252;28;20062;-70
2022/02/04 13:30:33;;;;;;;2.63;0.50;;;;;;;4.18;100.00;100612.28;5107453;28;20032;-72
2022/02/04 13:32:59;;;;;;;0.63;0.30;;;;;;;4.05;100.00;100631.75;5093221;28;20032;-72
2022/02/04 13:35:33;;;;;;;1.88;0.45;;;;;;;3.97;100.00;100620.13;5107914;28;20039;-73
2022/02/04 13:38:03;;;;;;;3.28;0.30;;;;;;;3.96;100.00;100627.88;5091964;28;20019;-72
2022/02/04 13:41:00;;;;;;;2.88;0.47;;;;;;;3.96;100.00;100634.00;5098908;28;20024;-72
2022/02/04 13:43:36;;;;;;;2.55;0.65;;;;;;;3.89;100.00;100629.34;5083380;28;20052;-72
2022/02/04 13:46:17;;;;;;;8.77;0.52;;;;;;;3.96;100.00;100640.91;5099591;28;20027;-73
2022/02/04 13:49:17;;;;;;;7.88;0.50;;;;;;;3.93;100.00;100649.47;5094409;28;20343;-71
2022/02/04 13:51:55;;;;;;;3.42;0.43;;;;;;;3.87;100.00;100646.66;5078767;28;20052;-72
2022/02/04 13:55:22;;;;;;;2.47;0.20;;;;;;;3.89;100.00;100660.59;5095519;28;20020;-73
2022/02/04 13:57:23;;;;;;;0.85;0.30;;;;;;;3.91;100.00;100658.97;5088952;28;20063;-73
2022/02/04 14:02:48;;;;;;;3.97;0.38;;;;;;;3.83;100.00;100674.25;5099632;28;20742;-73
2022/02/04 14:05:28;;;;;;;3.65;0.40;;;;;;;3.90;100.00;100683.19;5098568;28;20032;-74
2022/02/04 14:08:09;;;;;;;6.07;0.50;;;;;;;3.96;100.00;100699.09;5100448;28;20089;-73
2022/02/04 14:10:48;;;;;;;2.80;0.40;;;;;;;3.91;100.00;100695.41;5105751;28;20115;-72
2022/02/04 14:13:13;;;;;;;2.65;0.40;;;;;;;3.99;100.00;100694.00;5097784;28;20039;-73
2022/02/04 14:15:45;;;;;;;2.38;0.40;;;;;;;4.04;100.00;100687.28;5104547;27;20028;-74
2022/02/04 14:18:12;;;;;;;3.85;0.52;;;;;;;4.13;100.00;100698.88;5090872;27;20050;-73
2022/02/04 14:20:42;;;;;;;5.10;0.60;;;;;;;4.18;100.00;100697.34;5106566;27;20034;-73
2022/02/04 14:23:10;;;;;;;7.05;0.50;;;;;;;4.19;100.00;100687.00;5104800;27;20031;-74
2022/02/04 14:25:45;;;;;;;1.27;0.25;;;;;;;4.24;100.00;100709.72;5102040;27;20134;-75
2022/02/04 14:28:14;;;;;;;2.80;0.30;;;;;;;4.17;100.00;100721.63;5087077;27;20122;-73
2022/02/04 14:30:40;;;;;;;5.40;0.70;;;;;;;4.18;100.00;100720.78;5106317;27;20460;-72
2022/02/04 14:33:48;;;;;;;4.13;0.55;;;;;;;4.19;100.00;100727.75;5108242;27;20027;-73
2022/02/04 14:36:00;;;;;;;1.95;0.40;;;;;;;4.05;100.00;100735.88;5105448;27;20047;-75
2022/02/04 14:52:22;;;;;;;13.05;2.08;;;;;;;4.01;100.00;100801.69;5099650;28;20080;-74
2022/02/04 15:03:14;;;;;;;5.55;1.10;;;;;;;4.02;100.00;100829.50;5102093;28;20336;-73
2022/02/04 15:05:24;;;;;;;4.00;0.82;;;;;;;4.02;100.00;100832.09;5098905;28;20047;-72
2022/02/04 15:07:52;;;;;;;6.55;0.88;;;;;;;3.98;100.00;100832.81;5088353;27;20091;-73
2022/02/04 15:10:28;;;;;;;1.88;0.50;;;;;;;4.04;100.00;100856.50;5101838;27;20035;-74
2022/02/04 15:12:54;;;;;;;8.63;1.95;;;;;;;4.04;100.00;100868.63;5083694;28;20463;-73
2022/02/04 15:15:20;;;;;;;3.60;1.58;;;;;;;4.01;100.00;100865.91;5086501;28;20028;-73
2022/02/04 15:17:45;;;;;;;4.65;0.90;;;;;;;3.88;100.00;100867.09;5112765;27;20035;-73
2022/02/04 15:20:11;;;;;;;3.42;0.50;;;;;;;3.84;100.00;100871.25;5073356;28;20332;-73
2022/02/04 15:22:36;;;;;;;3.42;0.60;;;;;;;3.81;100.00;100880.63;5094000;27;20117;-73
2022/02/04 15:25:11;;;;;;;2.00;0.55;;;;;;;3.79;100.00;100904.00;5088026;28;20031;-72
2022/02/04 15:27:40;;;;;;;6.07;0.68;;;;;;;3.75;100.00;100903.78;5108883;27;20039;-73
2022/02/04 15:30:07;;;;;;;6.05;0.80;;;;;;;3.75;100.00;100912.47;5088861;28;20126;-72
2022/02/04 15:32:32;;;;;;;4.80;0.73;;;;;;;3.79;100.00;100904.00;5112300;27;20078;-73
2022/02/04 15:34:58;;;;;;;5.07;0.80;;;;;;;3.79;100.00;100903.13;5086997;28;20421;-72
2022/02/04 15:37:23;;;;;;;6.88;0.95;;;;;;;3.81;100.00;100915.38;5106852;28;20027;-71
2022/02/04 15:39:49;;;;;;;5.90;0.80;;;;;;;3.84;100.00;100923.31;5080989;28;20593;-72
2022/02/04 15:42:17;;;;;;;6.07;0.80;;;;;;;3.92;100.00;100931.47;5102980;27;20042;-72
2022/02/04 15:44:59;;;;;;;8.95;1.00;;;;;;;3.97;100.00;100940.34;5104248;27;20027;-72
2022/02/04 15:47:33;;;;;;;7.20;0.77;;;;;;;4.01;100.00;100950.09;5112089;27;20068;-72
2022/02/04 15:55:25;;;;;;;6.03;0.90;;;;;;;4.01;100.00;100967.44;5109355;27;20391;-73
2022/02/04 16:05:43;;;;;;;14.50;1.75;;;;;;;3.57;100.00;101027.03;5108074;27;20036;-73
2022/02/04 16:08:11;;;;;;;4.15;0.95;;;;;;;3.26;100.00;101015.13;5085277;28;20031;-73
2022/02/04 16:10:50;;;;;;;3.40;1.60;;;;;;;3.27;100.00;101005.59;5112990;27;20426;-73
2022/02/04 16:16:26;;;;;;;8.27;1.30;;;;;;;3.11;100.00;101017.00;5112422;27;20123;-73
2022/02/04 16:19:06;;;;;;;5.38;1.65;;;;;;;3.07;100.00;101020.25;5097201;27;20028;-73
2022/02/04 16:24:45;;;;;;;11.40;1.83;;;;;;;3.12;100.00;101048.25;5094399;27;20291;-74
2022/02/04 16:29:48;;;;;;;14.63;1.83;;;;;;;3.30;100.00;101058.69;5127087;27;20115;-73
2022/02/04 16:32:14;;;;;;;16.70;1.52;;;;;;;3.44;100.00;101061.06;5112074;27;20034;-74
2022/02/04 16:34:42;;;;;;;17.48;2.25;;;;;;;3.57;100.00;101063.44;5107376;27;20069;-73
2022/02/04 16:37:17;;;;;;;17.52;2.88;;;;;;;3.70;100.00;101057.13;5112206;27;20023;-74
2022/02/04 16:39:45;;;;;;;10.18;3.50;;;;;;;3.82;100.00;101060.28;5109276;27;20478;-73
2022/02/04 16:42:14;;;;;;;12.93;2.35;;;;;;;3.87;100.00;101074.44;5094602;27;20546;-73
2022/02/04 16:44:41;;;;;;;8.65;2.00;;;;;;;3.92;100.00;101076.34;5079119;28;20034;-73
2022/02/04 16:47:06;;;;;;;9.73;2.60;;;;;;;3.93;100.00;101088.56;5084159;28;20032;-73
2022/02/04 16:49:32;;;;;;;7.72;1.85;;;;;;;3.92;100.00;101082.47;5110231;28;20035;-75
2022/02/04 16:51:58;;;;;;;14.07;2.03;;;;;;;3.95;100.00;101092.13;5101797;28;20020;-74
2022/02/04 16:54:25;;;;;;;8.63;1.70;;;;;;;3.94;100.00;101099.03;5113955;27;20499;-73
2022/02/04 16:56:52;;;;;;;16.58;2.20;;;;;;;4.01;100.00;101103.72;5085938;28;20037;-74
2022/02/04 16:59:18;;;;;;;9.95;2.25;;;;;;;4.10;100.00;101099.78;5099372;27;20047;-74
2022/02/04 17:01:43;;;;;;;17.20;2.80;;;;;;;4.17;100.00;101104.44;5117582;27;20024;-73
2022/02/04 17:04:10;;;;;;;5.60;2.17;;;;;;;4.22;100.00;101111.66;5090720;28;20051;-74
2022/02/04 17:06:40;;;;;;;10.90;2.50;;;;;;;4.29;100.00;101110.22;5106610;27;20024;-74
2022/02/04 17:11:41;;;;;;;13.40;3.17;;;;;;;4.32;100.00;101115.56;5121272;27;20108;-73
2022/02/04 17:14:07;;;;;;;11.55;2.67;;;;;;;4.35;100.00;101120.94;5106923;27;20035;-74
2022/02/04 17:16:32;;;;;;;7.40;2.70;;;;;;;4.35;100.00;101123.56;5078423;28;20027;-71
2022/02/04 17:18:57;;;;;;;9.40;2.45;;;;;;;4.42;100.00;101121.22;5100658;28;20043;-72
2022/02/04 17:21:24;;;;;;;11.02;2.25;;;;;;;4.48;100.00;101137.13;5101947;28;20493;-73
2022/02/04 17:23:52;;;;;;;14.85;2.45;;;;;;;4.53;100.00;101146.94;5085647;28;20024;-72
2022/02/04 17:26:19;;;;;;;11.48;2.95;;;;;;;4.57;100.00;101147.97;5098756;28;20032;-73
2022/02/04 17:28:45;;;;;;;10.88;2.58;;;;;;;4.63;100.00;101144.78;5098710;28;20459;-73
2022/02/04 17:31:10;;;;;;;17.05;3.08;;;;;;;4.67;100.00;101152.78;5100067;28;20053;-74
2022/02/04 17:33:38;;;;;;;14.13;3.40;;;;;;;4.76;100.00;101157.53;5098400;28;20028;-73
2022/02/04 17:36:04;;;;;;;10.95;2.95;;;;;;;4.80;100.00;101162.06;5096883;28;20181;-73
2022/02/04 17:38:29;;;;;;;16.35;3.95;;;;;;;4.87;100.00;101164.13;5097980;28;20039;-73
2022/02/04 17:40:57;;;;;;;12.68;2.88;;;;;;;4.89;100.00;101166.78;5094977;28;20032;-73